Terminal Aerodrome Forecast
Issued by NWS

Home | Current Version | Previous Version | Graphics & Text | Print | Product List | Glossary On
Versions: 1 2 3 4 5 6 7 8 9 10 11 12 13 14 15 16 17 18 19
000
FTUS43 KGRB 010500
TAFAUW
TAF
KAUW 010520Z 0106/0206 04010G15KT P6SM OVC021
     FM010700 05010G18KT 6SM -SN BKN025
      TEMPO 0107/0111 3SM -SN BKN015
     FM011500 05011G18KT P6SM SCT025 BKN070
     FM012300 02009KT P6SM SCT030=

USA.gov is the U.S. government's official web portal to all federal, state and local government web resources and services.